createdAt,value
2023-05-07T00:01:36.546Z,9.98
2023-05-07T00:04:03.524Z,10.43
2023-05-07T00:06:30.589Z,10.88
2023-05-07T00:08:58.181Z,10.63
2023-05-07T00:11:26.784Z,11.13
2023-05-07T00:13:53.689Z,11.02
2023-05-07T00:16:20.813Z,10.90
2023-05-07T00:18:47.651Z,11.35
2023-05-07T00:21:14.473Z,11.60
2023-05-07T00:23:41.238Z,11.20
2023-05-07T00:26:07.999Z,11.93
2023-05-07T00:28:37.475Z,11.57
2023-05-07T00:31:04.272Z,11.40
2023-05-07T00:33:32.301Z,12.10
2023-05-07T00:35:59.036Z,11.13
2023-05-07T00:38:25.894Z,11.82
2023-05-07T00:40:52.713Z,11.70
2023-05-07T00:43:19.514Z,12.20
2023-05-07T00:45:48.064Z,11.77
2023-05-07T00:48:16.490Z,11.70
2023-05-07T00:50:45.111Z,11.85
2023-05-07T00:53:12.279Z,11.82
2023-05-07T00:55:39.533Z,12.57
2023-05-07T00:58:06.911Z,12.20
2023-05-07T01:00:33.706Z,12.13
2023-05-07T01:03:01.811Z,12.75
2023-05-07T01:05:30.093Z,13.05
2023-05-07T01:07:58.854Z,13.25
2023-05-07T01:10:25.900Z,14.38
2023-05-07T01:12:53.966Z,13.73
2023-05-07T01:15:21.125Z,13.87
2023-05-07T01:17:49.214Z,13.93
2023-05-07T01:20:18.745Z,13.60
2023-05-07T01:22:47.250Z,13.43
2023-05-07T01:25:14.373Z,13.52
2023-05-07T01:27:41.377Z,13.82
2023-05-07T01:30:09.248Z,14.20
2023-05-07T01:32:41.675Z,14.25
2023-05-07T01:35:12.650Z,13.73
2023-05-07T01:37:40.612Z,13.07
2023-05-07T01:40:10.037Z,13.88
2023-05-07T01:42:37.480Z,13.48
2023-05-07T01:45:04.983Z,13.20
2023-05-07T01:47:31.915Z,13.57
2023-05-07T01:49:59.352Z,13.77
2023-05-07T01:52:26.205Z,13.93
2023-05-07T01:54:52.992Z,13.85
2023-05-07T01:57:21.140Z,13.77
2023-05-07T01:59:47.865Z,14.27
2023-05-07T02:02:14.684Z,14.02
2023-05-07T02:04:41.487Z,13.73
2023-05-07T02:07:08.246Z,13.30
2023-05-07T02:09:34.980Z,14.52
2023-05-07T02:12:01.745Z,12.73
2023-05-07T02:14:29.886Z,14.05
2023-05-07T02:16:56.676Z,14.43
2023-05-07T02:19:24.592Z,13.80
2023-05-07T02:21:51.963Z,13.32
2023-05-07T02:24:18.687Z,13.98
2023-05-07T02:26:45.428Z,14.27
2023-05-07T02:29:12.183Z,15.13
2023-05-07T02:31:40.574Z,15.45
2023-05-07T02:34:08.848Z,15.82
2023-05-07T02:36:35.582Z,16.63
2023-05-07T02:39:02.668Z,17.48
2023-05-07T02:41:29.982Z,17.15
2023-05-07T02:43:56.759Z,17.90
2023-05-07T02:46:23.611Z,19.08
2023-05-07T02:48:51.948Z,18.17
2023-05-07T02:51:23.364Z,18.63
2023-05-07T02:53:51.503Z,19.05
2023-05-07T02:56:18.737Z,18.17
2023-05-07T02:58:46.489Z,19.13
2023-05-07T03:01:13.353Z,18.08
2023-05-07T03:03:41.417Z,19.27
2023-05-07T03:06:09.792Z,19.70
2023-05-07T03:08:36.626Z,20.00
2023-05-07T03:11:03.429Z,18.25
2023-05-07T03:13:30.170Z,19.75
2023-05-07T03:15:56.958Z,20.73
2023-05-07T03:18:23.773Z,19.63
2023-05-07T03:20:50.564Z,20.15
2023-05-07T03:23:23.208Z,18.95
2023-05-07T03:25:51.482Z,18.63
2023-05-07T03:28:18.302Z,19.23
2023-05-07T03:30:45.118Z,19.20
2023-05-07T03:33:13.114Z,19.33
2023-05-07T03:35:39.833Z,17.40
2023-05-07T03:38:06.708Z,17.98
2023-05-07T03:40:34.966Z,18.48
2023-05-07T03:43:01.913Z,17.35
2023-05-07T03:45:28.674Z,16.85
2023-05-07T03:47:55.507Z,16.77
2023-05-07T03:50:22.476Z,18.30
2023-05-07T03:52:49.313Z,18.50
2023-05-07T03:55:16.017Z,17.13
2023-05-07T03:57:44.091Z,17.73
2023-05-07T04:00:12.445Z,17.70
2023-05-07T04:02:39.635Z,17.20
2023-05-07T04:05:06.975Z,18.60
2023-05-07T04:07:33.833Z,18.65
2023-05-07T04:10:00.559Z,18.70
2023-05-07T04:12:27.312Z,17.50
2023-05-07T04:14:55.376Z,18.65
2023-05-07T04:17:22.184Z,18.30
2023-05-07T04:19:49.262Z,18.25
2023-05-07T04:22:16.244Z,19.73
2023-05-07T04:24:42.982Z,20.20
2023-05-07T04:27:09.740Z,18.75
2023-05-07T04:29:36.523Z,17.83
2023-05-07T04:32:05.365Z,19.27
2023-05-07T04:37:00.141Z,15.43
2023-05-07T04:39:26.901Z,18.70
2023-05-07T04:41:53.653Z,18.65
2023-05-07T04:44:20.589Z,18.23
2023-05-07T04:46:47.313Z,16.70
2023-05-07T04:49:15.471Z,18.45
2023-05-07T04:51:42.455Z,19.13
2023-05-07T04:54:09.594Z,19.55
2023-05-07T04:56:36.630Z,19.83
2023-05-07T04:59:04.649Z,16.30
2023-05-07T05:01:31.476Z,20.67
2023-05-07T05:03:58.474Z,19.15
2023-05-07T05:06:26.734Z,20.65
2023-05-07T05:08:53.478Z,20.15
2023-05-07T05:11:20.228Z,20.38
2023-05-07T05:13:47.084Z,19.10
2023-05-07T05:16:14.030Z,20.63
2023-05-07T05:18:40.771Z,18.30
2023-05-07T05:21:07.520Z,20.45
2023-05-07T05:23:43.519Z,18.67
2023-05-07T05:26:10.385Z,19.67
2023-05-07T05:28:37.248Z,20.13
2023-05-07T05:31:06.473Z,18.55
2023-05-07T05:33:33.231Z,18.40
2023-05-07T05:36:00.215Z,19.75
2023-05-07T05:38:28.138Z,19.30
2023-05-07T05:40:56.741Z,20.90
2023-05-07T05:43:23.989Z,15.73
2023-05-07T05:45:50.923Z,19.92
2023-05-07T05:48:17.753Z,20.30
2023-05-07T05:50:44.692Z,20.92
2023-05-07T05:53:11.704Z,18.20
2023-05-07T05:55:38.599Z,21.35
2023-05-07T05:58:06.718Z,17.88
2023-05-07T06:00:33.571Z,18.08
2023-05-07T06:03:00.657Z,18.45
2023-05-07T06:05:28.331Z,20.15
2023-05-07T06:07:55.220Z,18.25
2023-05-07T06:10:21.983Z,17.73
2023-05-07T06:12:49.008Z,18.98
2023-05-07T06:15:17.178Z,18.63
2023-05-07T06:17:43.908Z,19.00
2023-05-07T06:20:11.601Z,17.35
2023-05-07T06:22:38.593Z,21.10
2023-05-07T06:25:08.208Z,17.23
2023-05-07T06:27:35.113Z,17.75
2023-05-07T06:30:01.888Z,18.98
2023-05-07T06:32:30.358Z,20.25
2023-05-07T06:34:57.155Z,16.92
2023-05-07T06:37:23.926Z,19.10
2023-05-07T06:39:50.741Z,18.73
2023-05-07T06:42:17.470Z,18.38
2023-05-07T06:44:44.214Z,16.30
2023-05-07T06:47:11.878Z,15.85
2023-05-07T06:49:40.660Z,15.65
2023-05-07T06:52:07.394Z,15.97
2023-05-07T06:54:34.171Z,17.65
2023-05-07T06:57:01.029Z,17.63
2023-05-07T06:59:27.826Z,17.05
2023-05-07T07:01:54.943Z,14.00
2023-05-07T07:04:22.029Z,17.45
2023-05-07T07:06:50.149Z,17.45
2023-05-07T07:09:16.933Z,17.70
2023-05-07T07:11:43.741Z,15.65
2023-05-07T07:14:10.500Z,15.35
2023-05-07T07:16:39.349Z,15.32
2023-05-07T07:21:32.823Z,15.10
2023-05-07T07:24:00.981Z,15.48
2023-05-07T07:26:27.809Z,16.73
2023-05-07T07:28:54.819Z,16.08
2023-05-07T07:31:21.592Z,16.52
2023-05-07T07:33:49.147Z,16.77
2023-05-07T07:36:18.731Z,17.02
2023-05-07T07:38:45.527Z,16.77
2023-05-07T07:41:13.901Z,16.98
2023-05-07T07:43:40.671Z,16.35
2023-05-07T07:46:13.099Z,15.70
2023-05-07T07:48:44.745Z,14.57
2023-05-07T07:51:14.478Z,14.98
2023-05-07T07:53:42.296Z,16.00
2023-05-07T07:56:09.021Z,17.38
2023-05-07T07:58:37.066Z,16.90
2023-05-07T08:01:04.264Z,16.20
2023-05-07T08:03:31.219Z,17.02
2023-05-07T08:05:58.060Z,15.77
2023-05-07T08:08:24.905Z,17.13
2023-05-07T08:10:51.751Z,17.00
2023-05-07T08:13:18.989Z,17.02
2023-05-07T08:15:47.160Z,17.45
2023-05-07T08:18:14.437Z,16.65
2023-05-07T08:20:41.457Z,15.55
2023-05-07T08:23:08.278Z,16.77
2023-05-07T08:25:35.328Z,15.50
2023-05-07T08:28:02.094Z,16.38
2023-05-07T08:30:28.960Z,15.82
2023-05-07T08:32:57.272Z,16.20
2023-05-07T08:35:24.288Z,15.60
2023-05-07T08:37:52.792Z,14.88
2023-05-07T08:40:20.164Z,15.65
2023-05-07T08:42:52.833Z,15.00
2023-05-07T08:45:21.157Z,14.43
2023-05-07T08:47:51.527Z,13.80
2023-05-07T08:50:21.134Z,13.63
2023-05-07T08:52:48.534Z,13.00
2023-05-07T08:55:16.194Z,14.75
2023-05-07T08:57:43.296Z,14.63
2023-05-07T09:00:11.186Z,13.20
2023-05-07T09:02:38.246Z,12.67
2023-05-07T09:05:05.963Z,13.00
2023-05-07T09:07:35.033Z,12.35
2023-05-07T09:10:03.651Z,12.45
2023-05-07T09:12:30.439Z,12.77
2023-05-07T09:14:57.328Z,11.50
2023-05-07T09:17:24.171Z,11.82
2023-05-07T09:19:51.040Z,10.93
2023-05-07T09:22:17.819Z,11.13
2023-05-07T09:24:49.848Z,10.73
2023-05-07T09:27:16.744Z,10.75
2023-05-07T09:29:44.537Z,11.25
2023-05-07T09:32:11.559Z,11.27
2023-05-07T09:34:38.344Z,10.40
2023-05-07T09:37:06.466Z,9.75
2023-05-07T09:39:43.649Z,10.48
2023-05-07T09:42:14.551Z,10.32
2023-05-07T09:44:43.943Z,10.70
2023-05-07T09:47:12.510Z,10.63
2023-05-07T09:49:41.659Z,10.75
2023-05-07T09:52:08.412Z,11.43
2023-05-07T09:54:41.282Z,11.73
2023-05-07T09:57:10.226Z,11.88
2023-05-07T09:59:39.052Z,11.55
2023-05-07T10:02:06.109Z,10.15
2023-05-07T10:04:34.773Z,10.73
2023-05-07T10:07:02.318Z,9.50
2023-05-07T10:09:29.922Z,10.15
2023-05-07T10:11:58.023Z,11.15
2023-05-07T10:14:25.248Z,11.48
2023-05-07T10:16:54.765Z,10.13
2023-05-07T10:19:22.926Z,10.38
2023-05-07T10:21:56.361Z,10.55
2023-05-07T10:24:27.156Z,9.10
2023-05-07T10:26:56.255Z,8.82
2023-05-07T10:29:33.880Z,9.45
2023-05-07T10:32:13.549Z,8.35
2023-05-07T10:34:44.178Z,8.05
2023-05-07T10:37:11.530Z,8.65
2023-05-07T10:39:38.944Z,8.75
2023-05-07T10:42:09.960Z,7.90
2023-05-07T10:44:36.837Z,7.65
2023-05-07T10:47:10.342Z,7.90
2023-05-07T10:49:38.405Z,7.05
2023-05-07T10:52:16.292Z,7.63
2023-05-07T10:54:43.555Z,8.13
2023-05-07T10:57:33.811Z,7.97
2023-05-07T11:00:00.614Z,6.85
2023-05-07T11:03:07.234Z,7.78
2023-05-07T11:05:37.301Z,7.90
2023-05-07T11:08:07.936Z,7.03
2023-05-07T11:10:52.771Z,6.75
2023-05-07T11:13:39.919Z,7.32
2023-05-07T11:16:18.507Z,7.30
2023-05-07T11:21:38.298Z,6.55
2023-05-07T11:24:07.774Z,6.80
2023-05-07T11:26:48.799Z,6.97
2023-05-07T11:29:18.257Z,7.25
2023-05-07T11:31:49.926Z,6.88
2023-05-07T11:34:22.352Z,6.15
2023-05-07T11:36:49.865Z,7.18
2023-05-07T11:39:27.308Z,6.40
2023-05-07T11:41:54.071Z,6.53
2023-05-07T11:44:20.800Z,7.63
2023-05-07T11:46:47.822Z,7.10
2023-05-07T11:49:14.612Z,8.32
2023-05-07T11:51:42.768Z,7.50
2023-05-07T11:54:10.257Z,7.47
2023-05-07T11:56:37.409Z,8.02
2023-05-07T11:59:04.207Z,7.18
2023-05-07T12:01:30.974Z,7.97
2023-05-07T12:03:57.804Z,8.13
2023-05-07T12:06:24.699Z,8.15
2023-05-07T12:08:54.088Z,8.25
2023-05-07T12:11:25.127Z,7.35
2023-05-07T12:13:52.524Z,7.93
2023-05-07T12:16:20.825Z,7.28
2023-05-07T12:18:47.951Z,8.45
2023-05-07T12:21:14.781Z,7.90
2023-05-07T12:23:42.207Z,6.60
2023-05-07T12:26:11.605Z,6.43
2023-05-07T12:28:39.488Z,6.75
2023-05-07T12:31:06.728Z,6.85
2023-05-07T12:33:33.778Z,6.13
2023-05-07T12:36:06.337Z,7.07
2023-05-07T12:38:36.945Z,7.25
2023-05-07T12:41:03.951Z,5.88
2023-05-07T12:43:32.160Z,5.55
2023-05-07T12:46:02.197Z,5.68
2023-05-07T12:48:29.086Z,5.43
2023-05-07T12:50:56.723Z,5.63
2023-05-07T12:53:24.623Z,5.80
2023-05-07T12:55:53.275Z,6.10
2023-05-07T13:00:50.997Z,6.63
2023-05-07T13:03:25.650Z,6.50
2023-05-07T13:05:53.227Z,7.40
2023-05-07T13:08:30.484Z,7.60
2023-05-07T13:10:58.627Z,7.65
2023-05-07T13:13:25.421Z,8.27
2023-05-07T13:15:53.846Z,7.57
2023-05-07T13:18:22.056Z,7.30
2023-05-07T13:20:49.165Z,7.65
2023-05-07T13:23:15.926Z,7.78
2023-05-07T13:25:42.697Z,8.70
2023-05-07T13:28:11.250Z,9.15
2023-05-07T13:30:38.789Z,8.93
2023-05-07T13:33:07.423Z,9.38
2023-05-07T13:35:34.400Z,10.80
2023-05-07T13:38:01.121Z,9.30
2023-05-07T13:40:28.126Z,10.02
2023-05-07T13:42:55.187Z,10.10
2023-05-07T13:45:22.025Z,10.57
2023-05-07T13:47:48.819Z,10.52
2023-05-07T13:50:17.003Z,10.75
2023-05-07T13:52:47.062Z,10.38
2023-05-07T13:55:13.980Z,10.55
2023-05-07T13:57:41.865Z,10.45
2023-05-07T14:00:10.151Z,10.35
2023-05-07T14:05:05.994Z,9.82
2023-05-07T14:07:34.274Z,10.20
2023-05-07T14:10:01.154Z,9.73
2023-05-07T14:12:28.008Z,9.15
2023-05-07T14:14:54.758Z,9.25
2023-05-07T14:17:21.646Z,8.98
2023-05-07T14:19:48.459Z,8.95
2023-05-07T14:22:20.130Z,8.82
2023-05-07T14:24:55.993Z,9.15
2023-05-07T14:27:32.360Z,9.45
2023-05-07T14:29:59.121Z,8.63
2023-05-07T14:32:25.889Z,7.72
2023-05-07T14:34:53.160Z,7.50
2023-05-07T14:37:19.905Z,7.85
2023-05-07T14:39:50.655Z,8.68
2023-05-07T14:42:18.313Z,8.15
2023-05-07T14:44:46.106Z,3.70
2023-05-07T14:47:12.886Z,2.80
2023-05-07T14:49:39.697Z,2.97
2023-05-07T14:52:06.438Z,2.70
2023-05-07T14:57:10.127Z,2.65
2023-05-07T14:59:38.439Z,2.20
2023-05-07T15:02:09.097Z,2.03
2023-05-07T15:04:36.149Z,1.50
2023-05-07T15:07:03.328Z,1.15
2023-05-07T15:09:30.433Z,0.57
2023-05-07T15:11:57.224Z,0.90
2023-05-07T15:14:26.460Z,1.10
2023-05-07T15:16:53.217Z,1.17
2023-05-07T15:19:19.979Z,1.67
2023-05-07T15:21:46.734Z,1.20
2023-05-07T15:24:13.540Z,1.50
2023-05-07T15:26:40.268Z,1.42
2023-05-07T15:29:07.016Z,1.90
2023-05-07T15:31:35.134Z,2.00
2023-05-07T15:34:01.896Z,2.13
2023-05-07T15:36:28.656Z,1.58
2023-05-07T15:38:55.406Z,1.90
2023-05-07T15:41:22.204Z,1.88
2023-05-07T15:43:51.730Z,1.80
2023-05-07T15:46:22.652Z,1.35
2023-05-07T15:48:51.257Z,1.00
2023-05-07T15:51:18.181Z,1.40
2023-05-07T15:53:45.313Z,0.80
2023-05-07T15:56:12.112Z,1.50
2023-05-07T15:58:38.900Z,1.00
2023-05-07T16:01:05.802Z,0.80
2023-05-07T16:03:35.422Z,0.70
2023-05-07T16:06:03.803Z,0.90
2023-05-07T16:08:30.598Z,1.13
2023-05-07T16:10:58.123Z,0.57
2023-05-07T16:13:25.057Z,0.60
2023-05-07T16:15:56.576Z,0.60
2023-05-07T16:18:23.316Z,0.60
2023-05-07T16:20:50.433Z,0.70
2023-05-07T16:23:18.508Z,1.08
2023-05-07T16:25:45.228Z,1.10
2023-05-07T16:28:11.981Z,0.90
2023-05-07T16:30:38.736Z,0.55
2023-05-07T16:33:05.679Z,1.13
2023-05-07T16:35:32.530Z,1.20
2023-05-07T16:37:59.274Z,1.73
2023-05-07T16:40:27.610Z,0.90
2023-05-07T16:42:55.722Z,1.52
2023-05-07T16:45:22.571Z,1.48
2023-05-07T16:47:49.607Z,1.80
2023-05-07T16:50:16.391Z,1.75
2023-05-07T16:52:43.141Z,1.25
2023-05-07T16:55:10.214Z,1.70
2023-05-07T16:57:38.758Z,1.80
2023-05-07T17:00:07.059Z,1.50
2023-05-07T17:02:33.979Z,3.30
2023-05-07T17:05:00.966Z,1.60
2023-05-07T17:07:27.925Z,1.80
2023-05-07T17:09:54.676Z,1.80
2023-05-07T17:12:21.427Z,1.90
2023-05-07T17:14:49.674Z,1.80
2023-05-07T17:17:16.421Z,2.50
2023-05-07T17:19:43.941Z,1.60
2023-05-07T17:22:10.667Z,1.80
2023-05-07T17:24:37.416Z,1.80
2023-05-07T17:27:04.325Z,1.80
2023-05-07T17:29:31.082Z,1.83
2023-05-07T17:31:59.310Z,1.95
2023-05-07T17:34:26.122Z,1.60
2023-05-07T17:36:53.016Z,2.60
2023-05-07T17:39:19.957Z,2.00
2023-05-07T17:41:46.820Z,2.47
2023-05-07T17:44:13.578Z,2.60
2023-05-07T17:46:42.756Z,2.80
2023-05-07T17:49:10.804Z,2.40
2023-05-07T17:51:50.288Z,3.00
2023-05-07T17:54:21.168Z,2.53
2023-05-07T17:56:47.931Z,3.42
2023-05-07T17:59:14.695Z,2.97
2023-05-07T18:01:41.464Z,3.45
2023-05-07T18:04:10.298Z,3.97
2023-05-07T18:09:03.846Z,3.88
2023-05-07T18:11:30.570Z,4.55
2023-05-07T18:13:57.310Z,4.43
2023-05-07T18:16:24.164Z,4.30
2023-05-07T18:18:50.878Z,4.28
2023-05-07T18:21:19.076Z,4.47
2023-05-07T18:23:46.274Z,4.88
2023-05-07T18:26:13.094Z,5.15
2023-05-07T18:28:40.548Z,5.15
2023-05-07T18:31:07.432Z,5.93
2023-05-07T18:33:34.385Z,6.00
2023-05-07T18:36:01.210Z,6.82
2023-05-07T18:38:29.295Z,6.50
2023-05-07T18:41:00.953Z,7.05
2023-05-07T18:43:27.723Z,6.25
2023-05-07T18:45:54.518Z,7.10
2023-05-07T18:48:21.507Z,5.95
2023-05-07T18:50:48.315Z,6.97
2023-05-07T18:53:15.134Z,6.47
2023-05-07T18:55:43.243Z,6.43
2023-05-07T18:58:10.034Z,6.40
2023-05-07T19:00:37.064Z,6.50
2023-05-07T19:03:04.280Z,6.68
2023-05-07T19:05:31.034Z,6.45
2023-05-07T19:07:57.776Z,6.32
2023-05-07T19:10:24.663Z,6.68
2023-05-07T19:12:53.226Z,6.18
2023-05-07T19:15:20.200Z,6.80
2023-05-07T19:17:46.999Z,7.53
2023-05-07T19:20:15.921Z,5.97
2023-05-07T19:25:10.700Z,6.15
2023-05-07T19:27:37.616Z,6.85
2023-05-07T19:30:07.949Z,6.88
2023-05-07T19:32:34.792Z,7.05
2023-05-07T19:35:01.561Z,8.23
2023-05-07T19:37:28.327Z,7.45
2023-05-07T19:39:55.251Z,7.50
2023-05-07T19:42:21.980Z,8.80
2023-05-07T19:44:48.887Z,7.57
2023-05-07T19:47:17.681Z,8.73
2023-05-07T19:49:44.451Z,7.97
2023-05-07T19:52:11.188Z,7.75
2023-05-07T19:54:37.974Z,8.10
2023-05-07T19:57:04.815Z,8.23
2023-05-07T19:59:31.610Z,7.88
2023-05-07T20:01:58.426Z,8.57
2023-05-07T20:04:26.534Z,8.73
2023-05-07T20:06:53.258Z,9.00
2023-05-07T20:09:19.982Z,9.02
2023-05-07T20:11:46.735Z,8.88
2023-05-07T20:14:15.016Z,9.60
2023-05-07T20:16:42.016Z,10.15
2023-05-07T20:19:08.992Z,10.15
2023-05-07T20:21:37.129Z,10.18
2023-05-07T20:24:04.429Z,9.70
2023-05-07T20:26:31.149Z,9.95
2023-05-07T20:28:57.925Z,9.65
2023-05-07T20:31:24.786Z,10.02
2023-05-07T20:33:51.729Z,9.93
2023-05-07T20:36:18.484Z,10.32
2023-05-07T20:38:46.715Z,10.55
2023-05-07T20:41:13.488Z,11.27
2023-05-07T20:43:40.249Z,10.50
2023-05-07T20:46:07.137Z,10.80
2023-05-07T20:48:34.113Z,10.00
2023-05-07T20:51:01.715Z,10.90
2023-05-07T20:53:29.009Z,9.82
2023-05-07T20:55:57.643Z,10.63
2023-05-07T20:58:25.095Z,10.98
2023-05-07T21:00:51.979Z,10.32
2023-05-07T21:03:18.939Z,9.98
2023-05-07T21:05:51.113Z,9.75
2023-05-07T21:08:17.956Z,10.75
2023-05-07T21:10:44.676Z,10.13
2023-05-07T21:13:12.888Z,11.57
2023-05-07T21:15:41.294Z,11.60
2023-05-07T21:18:10.940Z,12.52
2023-05-07T21:20:38.303Z,13.00
2023-05-07T21:23:05.170Z,13.18
2023-05-07T21:25:31.909Z,13.75
2023-05-07T21:27:58.799Z,14.40
2023-05-07T21:30:26.930Z,13.95
2023-05-07T21:32:53.730Z,13.68
2023-05-07T21:35:20.478Z,12.80
2023-05-07T21:37:47.232Z,13.65
2023-05-07T21:40:14.500Z,13.25
2023-05-07T21:42:41.420Z,12.23
2023-05-07T21:45:09.078Z,12.70
2023-05-07T21:47:37.346Z,11.90
2023-05-07T21:50:04.702Z,11.82
2023-05-07T21:52:31.426Z,12.20
2023-05-07T21:54:58.161Z,12.48
2023-05-07T21:57:25.016Z,12.20
2023-05-07T21:59:51.764Z,12.45
2023-05-07T22:02:18.540Z,13.88
2023-05-07T22:04:46.714Z,12.80
2023-05-07T22:07:13.462Z,12.88
2023-05-07T22:09:40.244Z,12.85
2023-05-07T22:12:07.153Z,13.13
2023-05-07T22:14:33.872Z,13.50
2023-05-07T22:17:00.760Z,12.75
2023-05-07T22:19:27.543Z,12.65
2023-05-07T22:21:55.630Z,12.35
2023-05-07T22:24:22.830Z,12.75
2023-05-07T22:26:49.557Z,14.68
2023-05-07T22:29:16.385Z,13.70
2023-05-07T22:31:43.219Z,13.40
2023-05-07T22:34:09.980Z,14.05
2023-05-07T22:36:36.688Z,13.18
2023-05-07T22:39:04.775Z,13.75
2023-05-07T22:41:31.493Z,13.57
2023-05-07T22:43:58.220Z,14.00
2023-05-07T22:46:25.158Z,14.07
2023-05-07T22:48:51.997Z,14.27
2023-05-07T22:51:18.918Z,14.57
2023-05-07T22:53:45.661Z,14.70
2023-05-07T22:56:13.723Z,15.02
2023-05-07T22:58:40.471Z,15.73
2023-05-07T23:01:12.416Z,15.27
2023-05-07T23:03:39.254Z,14.77
2023-05-07T23:06:06.417Z,15.13
2023-05-07T23:08:33.135Z,15.32
2023-05-07T23:10:59.876Z,14.65
2023-05-07T23:13:28.082Z,15.85
2023-05-07T23:15:54.972Z,15.50
2023-05-07T23:18:21.720Z,16.08
2023-05-07T23:20:48.461Z,15.68
2023-05-07T23:23:15.199Z,16.08
2023-05-07T23:25:41.974Z,16.27
2023-05-07T23:28:08.721Z,16.20
2023-05-07T23:30:36.810Z,15.77
2023-05-07T23:33:03.667Z,16.48
2023-05-07T23:35:30.429Z,15.88
2023-05-07T23:37:58.345Z,17.75
2023-05-07T23:40:25.237Z,18.50
2023-05-07T23:42:52.143Z,16.52
2023-05-07T23:45:18.935Z,17.30
2023-05-07T23:47:47.325Z,17.10
2023-05-07T23:50:14.369Z,17.50
2023-05-07T23:52:41.244Z,16.60
2023-05-07T23:55:08.894Z,16.50
2023-05-07T23:57:35.704Z,16.55
